San Fermin Berria — EBVW — position and weather

sailwx.info

Track history (hours):
 
Tides and Currents Weather Stations Pressure Air Temp Water Temp Dewpoint Dewpoint Depression Visibility Wind Speed Wind Dir Waves Ship Positions

San Fermin Berria

Last reported at 2016-May-26 11:33 UTC. Time now 2016-May-29 03:55 UTC.
Position N 43°23' W 001°48'.

Length 30 m.

Type: Fishing. MMSI: 224114650.

Date/timePositionNaut miles runAvg speedWind from/ knotsBaromVisibWave heightAir tempDewpointWater temp
2016-May-26 11:33N 43°23' W 001°48'0 0.0
2016-May-26 10:31N 43°23' W 001°48'0 0.0
2016-May-26 09:33N 43°23' W 001°48'0 0.1
2016-May-26 08:31N 43°23' W 001°47'0 0.1
2016-May-26 07:33N 43°23' W 001°48'11 2.7
2016-May-26 03:28N 43°34' W 001°45'2 0.8
2016-May-26 00:32N 43°36' W 001°47'9 1.8
2016-May-25 19:28N 43°27' W 001°48'4 3.8
2016-May-25 18:31N 43°23' W 001°47'0 0.0
2016-May-25 07:04N 43°23' W 001°48'3 0.2
2016-May-24 16:27N 43°25' W 001°50'3 0.3
2016-May-24 07:33N 43°23' W 001°47'19 4.7
2016-May-24 03:31N 43°42' W 001°46'1 1.3
2016-May-24 02:31N 43°42' W 001°48'17 1.6
2016-May-23 15:31N 43°25' W 001°48'2 0.3
2016-May-23 10:07N 43°23' W 001°48'0 0.0
2016-May-23 09:33N 43°23' W 001°48'0 0.0
2016-May-21 06:04N 43°23' W 001°48'1 2.5
2016-May-21 05:33N 43°24' W 001°48'12 9.3
2016-May-21 04:14N 43°20' W 002°04'  
2016-May-18 11:16N 43°23' W 001°47'0 0.2
2016-May-18 10:33N 43°23' W 001°47'0 0.1
2016-May-18 09:33N 43°23' W 001°48'0 0.0
2016-May-18 08:31N 43°23' W 001°48'1 0.0
2016-May-16 14:34N 43°24' W 001°48'  
Track history (hours):
 
Tides and Currents Weather Stations Pressure Air Temp Water Temp Dewpoint Dewpoint Depression Visibility Wind Speed Wind Dir Waves Ship Positions

San Fermin Berria

Last reported at 2016-May-26 11:33 UTC. Time now 2016-May-29 03:55 UTC.
Position N 43°23' W 001°48'.

Length 30 m.

Type: Fishing. MMSI: 224114650.

Date/timePositionNaut miles runAvg speedWind from/ knotsBaromVisibWave heightAir tempDewpointWater temp
2016-May-26 11:33N 43°23' W 001°48'0 0.0
2016-May-26 10:31N 43°23' W 001°48'0 0.0
2016-May-26 09:33N 43°23' W 001°48'0 0.1
2016-May-26 08:31N 43°23' W 001°47'0 0.1
2016-May-26 07:33N 43°23' W 001°48'11 2.7
2016-May-26 03:28N 43°34' W 001°45'2 0.8
2016-May-26 00:32N 43°36' W 001°47'9 1.8
2016-May-25 19:28N 43°27' W 001°48'4 3.8
2016-May-25 18:31N 43°23' W 001°47'0 0.0
2016-May-25 07:04N 43°23' W 001°48'3 0.2
2016-May-24 16:27N 43°25' W 001°50'3 0.3
2016-May-24 07:33N 43°23' W 001°47'19 4.7
2016-May-24 03:31N 43°42' W 001°46'1 1.3
2016-May-24 02:31N 43°42' W 001°48'17 1.6
2016-May-23 15:31N 43°25' W 001°48'2 0.3
2016-May-23 10:07N 43°23' W 001°48'0 0.0
2016-May-23 09:33N 43°23' W 001°48'0 0.0
2016-May-21 06:04N 43°23' W 001°48'1 2.5
2016-May-21 05:33N 43°24' W 001°48'12 9.3
2016-May-21 04:14N 43°20' W 002°04'  
2016-May-18 11:16N 43°23' W 001°47'0 0.2
2016-May-18 10:33N 43°23' W 001°47'0 0.1
2016-May-18 09:33N 43°23' W 001°48'0 0.0
2016-May-18 08:31N 43°23' W 001°48'1 0.0
2016-May-16 14:34N 43°24' W 001°48'  

Dump ship's entire track history